sensor_id;sensor_type;location;lat;lon;timestamp;temperature;humidity
27671;DHT22;15077;49.704;9.908;2023-05-29T00:00:20;19.20;43.70
27671;DHT22;15077;49.704;9.908;2023-05-29T00:02:48;19.10;43.80
27671;DHT22;15077;49.704;9.908;2023-05-29T00:05:16;19.10;43.90
27671;DHT22;15077;49.704;9.908;2023-05-29T00:07:43;19.00;43.80
27671;DHT22;15077;49.704;9.908;2023-05-29T00:10:10;19.00;44.00
27671;DHT22;15077;49.704;9.908;2023-05-29T00:12:37;18.90;44.00
27671;DHT22;15077;49.704;9.908;2023-05-29T00:15:05;18.90;44.10
27671;DHT22;15077;49.704;9.908;2023-05-29T00:17:31;18.90;44.10
27671;DHT22;15077;49.704;9.908;2023-05-29T00:20:01;18.80;44.30
27671;DHT22;15077;49.704;9.908;2023-05-29T00:22:36;18.80;44.40
27671;DHT22;15077;49.704;9.908;2023-05-29T00:25:07;18.70;44.20
27671;DHT22;15077;49.704;9.908;2023-05-29T00:27:33;18.70;44.50
27671;DHT22;15077;49.704;9.908;2023-05-29T00:30:00;18.70;44.40
27671;DHT22;15077;49.704;9.908;2023-05-29T00:32:27;18.60;44.50
27671;DHT22;15077;49.704;9.908;2023-05-29T00:34:53;18.60;44.60
27671;DHT22;15077;49.704;9.908;2023-05-29T00:37:22;18.50;44.60
27671;DHT22;15077;49.704;9.908;2023-05-29T00:39:50;18.50;44.70
27671;DHT22;15077;49.704;9.908;2023-05-29T00:42:19;18.40;44.70
27671;DHT22;15077;49.704;9.908;2023-05-29T00:44:45;18.40;44.80
27671;DHT22;15077;49.704;9.908;2023-05-29T00:47:11;18.30;44.90
27671;DHT22;15077;49.704;9.908;2023-05-29T00:49:38;18.30;44.90
27671;DHT22;15077;49.704;9.908;2023-05-29T00:52:05;18.30;45.00
27671;DHT22;15077;49.704;9.908;2023-05-29T00:54:33;18.20;45.00
27671;DHT22;15077;49.704;9.908;2023-05-29T00:57:01;18.20;45.10
27671;DHT22;15077;49.704;9.908;2023-05-29T00:59:32;18.20;45.20
27671;DHT22;15077;49.704;9.908;2023-05-29T01:02:00;18.10;45.30
27671;DHT22;15077;49.704;9.908;2023-05-29T01:04:27;18.10;45.20
27671;DHT22;15077;49.704;9.908;2023-05-29T01:06:53;18.00;45.20
27671;DHT22;15077;49.704;9.908;2023-05-29T01:09:19;18.00;45.30
27671;DHT22;15077;49.704;9.908;2023-05-29T01:14:23;17.90;45.40
27671;DHT22;15077;49.704;9.908;2023-05-29T01:17:26;17.90;45.70
27671;DHT22;15077;49.704;9.908;2023-05-29T01:20:18;17.80;45.70
27671;DHT22;15077;49.704;9.908;2023-05-29T01:28:47;17.70;46.00
27671;DHT22;15077;49.704;9.908;2023-05-29T01:31:17;17.60;45.90
27671;DHT22;15077;49.704;9.908;2023-05-29T01:33:55;17.60;45.80
27671;DHT22;15077;49.704;9.908;2023-05-29T01:36:24;17.60;46.10
27671;DHT22;15077;49.704;9.908;2023-05-29T01:38:55;17.50;45.90
27671;DHT22;15077;49.704;9.908;2023-05-29T01:41:23;17.50;46.00
27671;DHT22;15077;49.704;9.908;2023-05-29T01:43:51;17.40;46.10
27671;DHT22;15077;49.704;9.908;2023-05-29T01:46:19;17.40;46.10
27671;DHT22;15077;49.704;9.908;2023-05-29T01:48:47;17.40;46.20
27671;DHT22;15077;49.704;9.908;2023-05-29T01:51:13;17.30;46.20
27671;DHT22;15077;49.704;9.908;2023-05-29T01:53:42;17.30;46.30
27671;DHT22;15077;49.704;9.908;2023-05-29T01:56:10;17.30;46.40
27671;DHT22;15077;49.704;9.908;2023-05-29T01:58:38;17.20;46.40
27671;DHT22;15077;49.704;9.908;2023-05-29T02:01:09;17.20;46.50
27671;DHT22;15077;49.704;9.908;2023-05-29T02:03:35;17.20;46.60
27671;DHT22;15077;49.704;9.908;2023-05-29T02:06:01;17.10;46.50
27671;DHT22;15077;49.704;9.908;2023-05-29T02:08:30;17.10;46.50
27671;DHT22;15077;49.704;9.908;2023-05-29T02:10:56;17.10;46.80
27671;DHT22;15077;49.704;9.908;2023-05-29T02:13:22;17.00;46.60
27671;DHT22;15077;49.704;9.908;2023-05-29T02:15:48;17.00;46.70
27671;DHT22;15077;49.704;9.908;2023-05-29T02:18:16;17.00;46.80
27671;DHT22;15077;49.704;9.908;2023-05-29T02:20:45;16.90;46.80
27671;DHT22;15077;49.704;9.908;2023-05-29T02:23:12;16.90;46.80
27671;DHT22;15077;49.704;9.908;2023-05-29T02:25:38;16.90;46.90
27671;DHT22;15077;49.704;9.908;2023-05-29T02:28:05;16.90;46.90
27671;DHT22;15077;49.704;9.908;2023-05-29T02:30:31;16.80;46.90
27671;DHT22;15077;49.704;9.908;2023-05-29T02:32:57;16.80;47.00
27671;DHT22;15077;49.704;9.908;2023-05-29T02:35:23;16.80;47.20
27671;DHT22;15077;49.704;9.908;2023-05-29T02:37:49;16.70;47.10
27671;DHT22;15077;49.704;9.908;2023-05-29T02:40:16;16.70;47.20
27671;DHT22;15077;49.704;9.908;2023-05-29T02:42:42;16.70;47.20
27671;DHT22;15077;49.704;9.908;2023-05-29T02:45:09;16.60;47.10
27671;DHT22;15077;49.704;9.908;2023-05-29T02:47:35;16.60;47.20
27671;DHT22;15077;49.704;9.908;2023-05-29T02:50:02;16.60;47.30
27671;DHT22;15077;49.704;9.908;2023-05-29T02:52:29;16.60;47.40
27671;DHT22;15077;49.704;9.908;2023-05-29T02:54:56;16.50;47.40
27671;DHT22;15077;49.704;9.908;2023-05-29T02:57:22;16.50;47.50
27671;DHT22;15077;49.704;9.908;2023-05-29T02:59:48;16.50;47.50
27671;DHT22;15077;49.704;9.908;2023-05-29T03:02:14;16.40;47.60
27671;DHT22;15077;49.704;9.908;2023-05-29T03:04:40;16.40;47.70
27671;DHT22;15077;49.704;9.908;2023-05-29T03:07:06;16.40;47.70
27671;DHT22;15077;49.704;9.908;2023-05-29T03:09:34;16.30;47.70
27671;DHT22;15077;49.704;9.908;2023-05-29T03:12:01;16.30;47.70
27671;DHT22;15077;49.704;9.908;2023-05-29T03:14:27;16.30;47.70
27671;DHT22;15077;49.704;9.908;2023-05-29T03:16:53;16.30;47.80
27671;DHT22;15077;49.704;9.908;2023-05-29T03:19:20;16.30;47.80
27671;DHT22;15077;49.704;9.908;2023-05-29T03:21:46;16.20;47.80
27671;DHT22;15077;49.704;9.908;2023-05-29T03:24:12;16.20;47.80
27671;DHT22;15077;49.704;9.908;2023-05-29T03:26:41;16.20;47.80
27671;DHT22;15077;49.704;9.908;2023-05-29T03:29:07;16.20;47.90
27671;DHT22;15077;49.704;9.908;2023-05-29T03:31:33;16.10;48.00
27671;DHT22;15077;49.704;9.908;2023-05-29T03:33:59;16.10;47.90
27671;DHT22;15077;49.704;9.908;2023-05-29T03:36:25;16.10;48.10
27671;DHT22;15077;49.704;9.908;2023-05-29T03:38:52;16.10;48.10
27671;DHT22;15077;49.704;9.908;2023-05-29T03:41:18;16.10;48.70
27671;DHT22;15077;49.704;9.908;2023-05-29T03:43:43;16.00;48.20
27671;DHT22;15077;49.704;9.908;2023-05-29T03:46:09;16.00;48.80
27671;DHT22;15077;49.704;9.908;2023-05-29T03:48:35;16.00;48.20
27671;DHT22;15077;49.704;9.908;2023-05-29T03:51:01;16.00;48.90
27671;DHT22;15077;49.704;9.908;2023-05-29T03:53:27;16.00;48.30
27671;DHT22;15077;49.704;9.908;2023-05-29T03:55:52;15.90;48.40
27671;DHT22;15077;49.704;9.908;2023-05-29T03:58:18;15.90;48.50
27671;DHT22;15077;49.704;9.908;2023-05-29T04:00:44;15.90;48.70
27671;DHT22;15077;49.704;9.908;2023-05-29T04:03:10;15.90;48.60
27671;DHT22;15077;49.704;9.908;2023-05-29T04:05:36;15.90;48.70
27671;DHT22;15077;49.704;9.908;2023-05-29T04:08:02;15.90;48.70
27671;DHT22;15077;49.704;9.908;2023-05-29T04:10:29;15.90;48.70
27671;DHT22;15077;49.704;9.908;2023-05-29T04:12:59;15.90;48.70
27671;DHT22;15077;49.704;9.908;2023-05-29T04:15:28;16.00;49.00
27671;DHT22;15077;49.704;9.908;2023-05-29T04:17:54;16.00;49.10
27671;DHT22;15077;49.704;9.908;2023-05-29T04:20:20;16.00;49.20
27671;DHT22;15077;49.704;9.908;2023-05-29T04:22:47;16.00;49.10
27671;DHT22;15077;49.704;9.908;2023-05-29T04:25:12;16.00;49.10
27671;DHT22;15077;49.704;9.908;2023-05-29T04:27:38;16.00;49.20
27671;DHT22;15077;49.704;9.908;2023-05-29T04:30:05;16.10;49.40
27671;DHT22;15077;49.704;9.908;2023-05-29T04:32:32;16.10;49.50
27671;DHT22;15077;49.704;9.908;2023-05-29T04:34:59;16.10;49.60
27671;DHT22;15077;49.704;9.908;2023-05-29T04:37:28;16.10;49.70
27671;DHT22;15077;49.704;9.908;2023-05-29T04:39:55;16.10;49.70
27671;DHT22;15077;49.704;9.908;2023-05-29T04:42:23;16.10;50.00
27671;DHT22;15077;49.704;9.908;2023-05-29T04:44:51;16.20;50.10
27671;DHT22;15077;49.704;9.908;2023-05-29T04:47:18;16.20;50.00
27671;DHT22;15077;49.704;9.908;2023-05-29T04:49:45;16.20;50.40
27671;DHT22;15077;49.704;9.908;2023-05-29T04:52:16;16.20;50.30
27671;DHT22;15077;49.704;9.908;2023-05-29T04:54:41;16.20;50.20
27671;DHT22;15077;49.704;9.908;2023-05-29T04:57:07;16.30;50.50
27671;DHT22;15077;49.704;9.908;2023-05-29T04:59:34;16.30;50.50
27671;DHT22;15077;49.704;9.908;2023-05-29T05:02:00;16.30;50.50
27671;DHT22;15077;49.704;9.908;2023-05-29T05:04:26;16.30;50.70
27671;DHT22;15077;49.704;9.908;2023-05-29T05:06:52;16.30;50.70
27671;DHT22;15077;49.704;9.908;2023-05-29T05:09:18;16.30;50.60
27671;DHT22;15077;49.704;9.908;2023-05-29T05:11:43;16.40;50.80
27671;DHT22;15077;49.704;9.908;2023-05-29T05:14:09;16.40;50.80
27671;DHT22;15077;49.704;9.908;2023-05-29T05:16:35;16.50;51.20
27671;DHT22;15077;49.704;9.908;2023-05-29T05:19:01;16.50;51.00
27671;DHT22;15077;49.704;9.908;2023-05-29T05:21:26;16.50;51.10
27671;DHT22;15077;49.704;9.908;2023-05-29T05:23:52;16.60;51.10
27671;DHT22;15077;49.704;9.908;2023-05-29T05:26:18;16.60;51.20
27671;DHT22;15077;49.704;9.908;2023-05-29T05:28:44;16.60;51.30
27671;DHT22;15077;49.704;9.908;2023-05-29T05:31:09;16.70;51.40
27671;DHT22;15077;49.704;9.908;2023-05-29T05:33:36;16.70;51.40
27671;DHT22;15077;49.704;9.908;2023-05-29T05:36:02;16.80;51.60
27671;DHT22;15077;49.704;9.908;2023-05-29T05:38:28;16.80;52.20
27671;DHT22;15077;49.704;9.908;2023-05-29T05:40:54;16.90;51.50
27671;DHT22;15077;49.704;9.908;2023-05-29T05:43:21;16.90;51.60
27671;DHT22;15077;49.704;9.908;2023-05-29T05:45:47;17.00;51.80
27671;DHT22;15077;49.704;9.908;2023-05-29T05:48:13;17.00;52.10
27671;DHT22;15077;49.704;9.908;2023-05-29T05:50:39;17.10;52.20
27671;DHT22;15077;49.704;9.908;2023-05-29T05:53:05;17.20;52.40
27671;DHT22;15077;49.704;9.908;2023-05-29T05:55:30;17.20;52.30
27671;DHT22;15077;49.704;9.908;2023-05-29T05:57:56;17.30;52.20
27671;DHT22;15077;49.704;9.908;2023-05-29T06:00:25;17.30;52.10
27671;DHT22;15077;49.704;9.908;2023-05-29T06:02:51;17.40;52.20
27671;DHT22;15077;49.704;9.908;2023-05-29T06:05:17;17.50;52.40
27671;DHT22;15077;49.704;9.908;2023-05-29T06:07:43;17.50;52.10
27671;DHT22;15077;49.704;9.908;2023-05-29T06:10:09;17.60;52.80
27671;DHT22;15077;49.704;9.908;2023-05-29T06:12:35;17.60;52.60
27671;DHT22;15077;49.704;9.908;2023-05-29T06:15:01;17.70;52.50
27671;DHT22;15077;49.704;9.908;2023-05-29T06:17:29;17.80;52.50
27671;DHT22;15077;49.704;9.908;2023-05-29T06:19:55;17.80;52.40
27671;DHT22;15077;49.704;9.908;2023-05-29T06:22:20;17.90;52.20
27671;DHT22;15077;49.704;9.908;2023-05-29T06:24:46;18.00;52.10
27671;DHT22;15077;49.704;9.908;2023-05-29T06:27:12;18.00;52.00
27671;DHT22;15077;49.704;9.908;2023-05-29T06:29:38;18.10;52.00
27671;DHT22;15077;49.704;9.908;2023-05-29T06:32:04;18.20;52.20
27671;DHT22;15077;49.704;9.908;2023-05-29T06:34:30;18.20;52.40
27671;DHT22;15077;49.704;9.908;2023-05-29T06:36:56;18.30;52.50
27671;DHT22;15077;49.704;9.908;2023-05-29T06:39:21;18.40;52.80
27671;DHT22;15077;49.704;9.908;2023-05-29T06:41:47;18.40;52.60
27671;DHT22;15077;49.704;9.908;2023-05-29T06:44:13;18.50;52.70
27671;DHT22;15077;49.704;9.908;2023-05-29T06:46:39;18.60;52.50
27671;DHT22;15077;49.704;9.908;2023-05-29T06:49:04;18.70;52.70
27671;DHT22;15077;49.704;9.908;2023-05-29T06:51:30;18.80;52.70
27671;DHT22;15077;49.704;9.908;2023-05-29T06:53:57;18.90;52.70
27671;DHT22;15077;49.704;9.908;2023-05-29T06:56:23;18.90;53.20
27671;DHT22;15077;49.704;9.908;2023-05-29T06:58:49;19.00;52.60
27671;DHT22;15077;49.704;9.908;2023-05-29T07:01:15;19.10;52.70
27671;DHT22;15077;49.704;9.908;2023-05-29T07:03:42;19.20;52.40
27671;DHT22;15077;49.704;9.908;2023-05-29T07:06:08;19.30;52.20
27671;DHT22;15077;49.704;9.908;2023-05-29T07:08:34;19.30;52.20
27671;DHT22;15077;49.704;9.908;2023-05-29T07:11:01;19.40;52.10
27671;DHT22;15077;49.704;9.908;2023-05-29T07:13:27;19.50;52.20
27671;DHT22;15077;49.704;9.908;2023-05-29T07:15:53;19.60;52.40
27671;DHT22;15077;49.704;9.908;2023-05-29T07:18:19;19.70;51.80
27671;DHT22;15077;49.704;9.908;2023-05-29T07:20:45;19.80;51.70
27671;DHT22;15077;49.704;9.908;2023-05-29T07:23:11;19.90;51.60
27671;DHT22;15077;49.704;9.908;2023-05-29T07:25:36;19.90;51.40
27671;DHT22;15077;49.704;9.908;2023-05-29T07:28:02;20.00;51.30
27671;DHT22;15077;49.704;9.908;2023-05-29T07:30:28;20.10;51.20
27671;DHT22;15077;49.704;9.908;2023-05-29T07:32:54;20.20;51.40
27671;DHT22;15077;49.704;9.908;2023-05-29T07:35:20;20.30;50.90
27671;DHT22;15077;49.704;9.908;2023-05-29T07:37:46;20.40;50.60
27671;DHT22;15077;49.704;9.908;2023-05-29T07:40:13;20.50;51.00
27671;DHT22;15077;49.704;9.908;2023-05-29T07:42:40;20.60;50.70
27671;DHT22;15077;49.704;9.908;2023-05-29T07:45:07;20.60;50.30
27671;DHT22;15077;49.704;9.908;2023-05-29T07:47:32;20.70;50.50
27671;DHT22;15077;49.704;9.908;2023-05-29T07:49:58;20.90;50.50
27671;DHT22;15077;49.704;9.908;2023-05-29T07:52:24;21.00;49.90
27671;DHT22;15077;49.704;9.908;2023-05-29T07:54:50;21.10;49.50
27671;DHT22;15077;49.704;9.908;2023-05-29T07:57:16;21.20;48.90
27671;DHT22;15077;49.704;9.908;2023-05-29T07:59:42;21.30;48.30
27671;DHT22;15077;49.704;9.908;2023-05-29T08:02:11;21.40;48.50
27671;DHT22;15077;49.704;9.908;2023-05-29T08:04:37;21.50;48.70
27671;DHT22;15077;49.704;9.908;2023-05-29T08:07:03;21.60;48.50
27671;DHT22;15077;49.704;9.908;2023-05-29T08:09:29;21.70;48.00
27671;DHT22;15077;49.704;9.908;2023-05-29T08:11:55;21.80;48.10
27671;DHT22;15077;49.704;9.908;2023-05-29T08:14:21;21.90;48.20
27671;DHT22;15077;49.704;9.908;2023-05-29T08:16:47;22.00;48.00
27671;DHT22;15077;49.704;9.908;2023-05-29T08:19:12;22.10;47.40
27671;DHT22;15077;49.704;9.908;2023-05-29T08:21:38;22.20;47.20
27671;DHT22;15077;49.704;9.908;2023-05-29T08:24:05;22.30;47.30
27671;DHT22;15077;49.704;9.908;2023-05-29T08:26:31;22.40;47.30
27671;DHT22;15077;49.704;9.908;2023-05-29T08:28:57;22.50;47.10
27671;DHT22;15077;49.704;9.908;2023-05-29T08:31:23;22.60;47.40
27671;DHT22;15077;49.704;9.908;2023-05-29T08:33:51;22.70;46.90
27671;DHT22;15077;49.704;9.908;2023-05-29T08:36:17;22.80;47.10
27671;DHT22;15077;49.704;9.908;2023-05-29T08:38:46;22.90;46.10
27671;DHT22;15077;49.704;9.908;2023-05-29T08:41:20;23.10;45.60
27671;DHT22;15077;49.704;9.908;2023-05-29T08:43:52;23.20;45.40
27671;DHT22;15077;49.704;9.908;2023-05-29T08:46:18;23.30;44.90
27671;DHT22;15077;49.704;9.908;2023-05-29T08:48:51;23.40;43.90
27671;DHT22;15077;49.704;9.908;2023-05-29T08:51:20;23.50;44.40
27671;DHT22;15077;49.704;9.908;2023-05-29T08:53:48;23.60;43.50
27671;DHT22;15077;49.704;9.908;2023-05-29T08:56:16;23.70;44.00
27671;DHT22;15077;49.704;9.908;2023-05-29T08:58:43;23.90;43.50
27671;DHT22;15077;49.704;9.908;2023-05-29T09:01:09;23.90;43.00
27671;DHT22;15077;49.704;9.908;2023-05-29T09:03:35;24.10;43.20
27671;DHT22;15077;49.704;9.908;2023-05-29T09:06:03;24.10;42.50
27671;DHT22;15077;49.704;9.908;2023-05-29T09:08:30;24.20;42.30
27671;DHT22;15077;49.704;9.908;2023-05-29T09:10:56;24.40;42.70
27671;DHT22;15077;49.704;9.908;2023-05-29T09:13:22;24.40;42.00
27671;DHT22;15077;49.704;9.908;2023-05-29T09:15:48;24.50;42.30
27671;DHT22;15077;49.704;9.908;2023-05-29T09:18:16;24.60;42.60
27671;DHT22;15077;49.704;9.908;2023-05-29T09:20:43;24.70;41.10
27671;DHT22;15077;49.704;9.908;2023-05-29T09:23:09;24.90;41.00
27671;DHT22;15077;49.704;9.908;2023-05-29T09:25:39;24.90;40.40
27671;DHT22;15077;49.704;9.908;2023-05-29T09:28:09;25.00;40.90
27671;DHT22;15077;49.704;9.908;2023-05-29T09:30:43;25.10;41.00
27671;DHT22;15077;49.704;9.908;2023-05-29T09:33:12;25.20;41.40
27671;DHT22;15077;49.704;9.908;2023-05-29T09:35:43;25.30;41.40
27671;DHT22;15077;49.704;9.908;2023-05-29T09:38:18;25.40;41.00
27671;DHT22;15077;49.704;9.908;2023-05-29T09:40:45;25.50;40.50
27671;DHT22;15077;49.704;9.908;2023-05-29T09:43:14;25.60;40.90
27671;DHT22;15077;49.704;9.908;2023-05-29T09:45:47;25.70;40.80
27671;DHT22;15077;49.704;9.908;2023-05-29T09:48:18;25.80;40.00
27671;DHT22;15077;49.704;9.908;2023-05-29T09:50:48;25.90;39.80
27671;DHT22;15077;49.704;9.908;2023-05-29T09:53:18;26.00;38.80
27671;DHT22;15077;49.704;9.908;2023-05-29T09:55:51;26.10;39.70
27671;DHT22;15077;49.704;9.908;2023-05-29T09:58:18;26.10;38.80
27671;DHT22;15077;49.704;9.908;2023-05-29T10:00:45;26.20;38.40
27671;DHT22;15077;49.704;9.908;2023-05-29T10:03:12;26.30;38.90
27671;DHT22;15077;49.704;9.908;2023-05-29T10:05:42;26.40;38.60
27671;DHT22;15077;49.704;9.908;2023-05-29T10:08:14;26.40;38.80
27671;DHT22;15077;49.704;9.908;2023-05-29T10:11:02;26.50;38.70
27671;DHT22;15077;49.704;9.908;2023-05-29T10:13:38;26.60;38.30
27671;DHT22;15077;49.704;9.908;2023-05-29T10:16:11;26.60;38.00
27671;DHT22;15077;49.704;9.908;2023-05-29T10:18:43;26.70;38.00
27671;DHT22;15077;49.704;9.908;2023-05-29T10:21:12;26.70;37.80
27671;DHT22;15077;49.704;9.908;2023-05-29T10:23:40;26.80;38.50
27671;DHT22;15077;49.704;9.908;2023-05-29T10:26:27;26.90;38.30
27671;DHT22;15077;49.704;9.908;2023-05-29T10:32:39;27.10;37.80
27671;DHT22;15077;49.704;9.908;2023-05-29T10:35:25;27.20;36.80
27671;DHT22;15077;49.704;9.908;2023-05-29T10:38:02;27.30;35.70
27671;DHT22;15077;49.704;9.908;2023-05-29T10:40:36;27.30;36.40
27671;DHT22;15077;49.704;9.908;2023-05-29T10:43:02;27.40;35.30
27671;DHT22;15077;49.704;9.908;2023-05-29T10:50:38;27.50;35.40
27671;DHT22;15077;49.704;9.908;2023-05-29T10:53:07;27.50;34.40
27671;DHT22;15077;49.704;9.908;2023-05-29T10:55:38;27.50;33.90
27671;DHT22;15077;49.704;9.908;2023-05-29T10:58:05;27.50;34.30
27671;DHT22;15077;49.704;9.908;2023-05-29T11:00:32;27.50;34.90
27671;DHT22;15077;49.704;9.908;2023-05-29T11:03:02;27.50;35.00
27671;DHT22;15077;49.704;9.908;2023-05-29T11:05:29;27.60;34.80
27671;DHT22;15077;49.704;9.908;2023-05-29T11:07:59;27.60;35.20
27671;DHT22;15077;49.704;9.908;2023-05-29T11:13:34;27.80;34.30
27671;DHT22;15077;49.704;9.908;2023-05-29T11:18:42;27.90;33.60
27671;DHT22;15077;49.704;9.908;2023-05-29T11:23:52;27.90;33.90
27671;DHT22;15077;49.704;9.908;2023-05-29T11:26:20;27.90;33.10
27671;DHT22;15077;49.704;9.908;2023-05-29T11:28:48;27.90;33.00
27671;DHT22;15077;49.704;9.908;2023-05-29T11:31:15;27.90;33.70
27671;DHT22;15077;49.704;9.908;2023-05-29T11:33:47;27.90;33.40
27671;DHT22;15077;49.704;9.908;2023-05-29T11:36:17;27.90;33.80
27671;DHT22;15077;49.704;9.908;2023-05-29T11:38:46;27.90;33.90
27671;DHT22;15077;49.704;9.908;2023-05-29T11:41:13;27.90;33.30
27671;DHT22;15077;49.704;9.908;2023-05-29T11:43:39;28.00;34.30
27671;DHT22;15077;49.704;9.908;2023-05-29T11:46:34;27.90;33.30
27671;DHT22;15077;49.704;9.908;2023-05-29T11:49:00;27.90;34.40
27671;DHT22;15077;49.704;9.908;2023-05-29T11:51:26;28.00;34.00
27671;DHT22;15077;49.704;9.908;2023-05-29T11:53:52;28.00;34.20
27671;DHT22;15077;49.704;9.908;2023-05-29T11:56:24;28.00;34.70
27671;DHT22;15077;49.704;9.908;2023-05-29T11:58:54;28.10;34.40
27671;DHT22;15077;49.704;9.908;2023-05-29T12:01:22;28.10;34.00
27671;DHT22;15077;49.704;9.908;2023-05-29T12:03:50;28.20;34.60
27671;DHT22;15077;49.704;9.908;2023-05-29T12:06:16;28.20;34.20
27671;DHT22;15077;49.704;9.908;2023-05-29T12:08:56;28.20;34.90
27671;DHT22;15077;49.704;9.908;2023-05-29T12:11:25;28.20;34.90
27671;DHT22;15077;49.704;9.908;2023-05-29T12:13:58;28.20;34.70
27671;DHT22;15077;49.704;9.908;2023-05-29T12:16:32;28.30;35.30
27671;DHT22;15077;49.704;9.908;2023-05-29T12:18:59;28.30;35.10
27671;DHT22;15077;49.704;9.908;2023-05-29T12:21:27;28.40;35.20
27671;DHT22;15077;49.704;9.908;2023-05-29T12:23:53;28.40;34.80
27671;DHT22;15077;49.704;9.908;2023-05-29T12:26:24;28.50;35.10
27671;DHT22;15077;49.704;9.908;2023-05-29T12:28:51;28.50;34.90
27671;DHT22;15077;49.704;9.908;2023-05-29T12:31:28;28.60;34.80
27671;DHT22;15077;49.704;9.908;2023-05-29T12:34:01;28.60;33.90
27671;DHT22;15077;49.704;9.908;2023-05-29T12:36:40;28.70;34.10
27671;DHT22;15077;49.704;9.908;2023-05-29T12:39:07;28.70;34.10
27671;DHT22;15077;49.704;9.908;2023-05-29T12:41:35;28.70;33.90
27671;DHT22;15077;49.704;9.908;2023-05-29T12:44:05;28.70;33.60
27671;DHT22;15077;49.704;9.908;2023-05-29T12:46:39;28.80;34.30
27671;DHT22;15077;49.704;9.908;2023-05-29T12:49:15;28.90;34.60
27671;DHT22;15077;49.704;9.908;2023-05-29T12:51:44;28.90;34.10
27671;DHT22;15077;49.704;9.908;2023-05-29T12:54:15;29.00;33.80
27671;DHT22;15077;49.704;9.908;2023-05-29T12:56:42;29.00;33.60
27671;DHT22;15077;49.704;9.908;2023-05-29T12:59:09;29.00;33.80
27671;DHT22;15077;49.704;9.908;2023-05-29T13:01:36;29.10;33.90
27671;DHT22;15077;49.704;9.908;2023-05-29T13:04:06;29.10;33.70
27671;DHT22;15077;49.704;9.908;2023-05-29T13:06:41;29.10;33.40
27671;DHT22;15077;49.704;9.908;2023-05-29T13:09:07;29.20;34.00
27671;DHT22;15077;49.704;9.908;2023-05-29T13:11:33;29.20;33.40
27671;DHT22;15077;49.704;9.908;2023-05-29T13:13:59;29.20;32.60
27671;DHT22;15077;49.704;9.908;2023-05-29T13:16:25;29.20;32.80
27671;DHT22;15077;49.704;9.908;2023-05-29T13:18:51;29.20;32.90
27671;DHT22;15077;49.704;9.908;2023-05-29T13:21:16;29.20;32.80
27671;DHT22;15077;49.704;9.908;2023-05-29T13:23:42;29.20;31.80
27671;DHT22;15077;49.704;9.908;2023-05-29T13:26:08;29.20;32.50
27671;DHT22;15077;49.704;9.908;2023-05-29T13:28:34;29.20;32.90
27671;DHT22;15077;49.704;9.908;2023-05-29T13:30:59;29.20;32.10
27671;DHT22;15077;49.704;9.908;2023-05-29T13:33:25;29.20;32.90
27671;DHT22;15077;49.704;9.908;2023-05-29T13:35:51;29.10;33.10
27671;DHT22;15077;49.704;9.908;2023-05-29T13:38:17;29.20;33.80
27671;DHT22;15077;49.704;9.908;2023-05-29T13:40:43;29.20;34.10
27671;DHT22;15077;49.704;9.908;2023-05-29T13:43:08;29.20;33.30
27671;DHT22;15077;49.704;9.908;2023-05-29T13:45:34;29.20;33.20
27671;DHT22;15077;49.704;9.908;2023-05-29T13:48:00;29.20;32.90
27671;DHT22;15077;49.704;9.908;2023-05-29T13:50:25;29.20;33.00
27671;DHT22;15077;49.704;9.908;2023-05-29T13:52:52;29.20;32.70
27671;DHT22;15077;49.704;9.908;2023-05-29T13:55:18;29.20;32.90
27671;DHT22;15077;49.704;9.908;2023-05-29T13:57:43;29.20;32.60
27671;DHT22;15077;49.704;9.908;2023-05-29T14:00:10;29.30;33.00
27671;DHT22;15077;49.704;9.908;2023-05-29T14:02:37;29.30;33.40
27671;DHT22;15077;49.704;9.908;2023-05-29T14:05:03;29.40;32.50
27671;DHT22;15077;49.704;9.908;2023-05-29T14:07:31;29.40;32.10
27671;DHT22;15077;49.704;9.908;2023-05-29T14:09:57;29.40;33.00
27671;DHT22;15077;49.704;9.908;2023-05-29T14:12:23;29.40;32.00
27671;DHT22;15077;49.704;9.908;2023-05-29T14:14:48;29.40;32.40
27671;DHT22;15077;49.704;9.908;2023-05-29T14:17:14;29.50;32.50
27671;DHT22;15077;49.704;9.908;2023-05-29T14:19:40;29.50;33.00
27671;DHT22;15077;49.704;9.908;2023-05-29T14:22:06;29.50;32.60
27671;DHT22;15077;49.704;9.908;2023-05-29T14:24:32;29.50;32.50
27671;DHT22;15077;49.704;9.908;2023-05-29T14:26:58;29.50;32.70
27671;DHT22;15077;49.704;9.908;2023-05-29T14:29:23;29.50;32.70
27671;DHT22;15077;49.704;9.908;2023-05-29T14:31:50;29.50;32.30
27671;DHT22;15077;49.704;9.908;2023-05-29T14:34:15;29.50;31.60
27671;DHT22;15077;49.704;9.908;2023-05-29T14:36:41;29.50;31.80
27671;DHT22;15077;49.704;9.908;2023-05-29T14:39:09;29.50;31.30
27671;DHT22;15077;49.704;9.908;2023-05-29T14:41:35;29.50;31.70
27671;DHT22;15077;49.704;9.908;2023-05-29T14:44:01;29.50;31.90
27671;DHT22;15077;49.704;9.908;2023-05-29T14:46:27;29.50;31.40
27671;DHT22;15077;49.704;9.908;2023-05-29T14:49:00;29.50;32.20
27671;DHT22;15077;49.704;9.908;2023-05-29T14:51:26;29.50;31.40
27671;DHT22;15077;49.704;9.908;2023-05-29T14:53:52;29.40;31.10
27671;DHT22;15077;49.704;9.908;2023-05-29T14:56:19;29.40;32.20
27671;DHT22;15077;49.704;9.908;2023-05-29T14:58:45;29.40;32.20
27671;DHT22;15077;49.704;9.908;2023-05-29T15:01:13;29.40;32.10
27671;DHT22;15077;49.704;9.908;2023-05-29T15:03:40;29.40;31.90
27671;DHT22;15077;49.704;9.908;2023-05-29T15:06:06;29.40;31.60
27671;DHT22;15077;49.704;9.908;2023-05-29T15:08:35;29.40;31.30
27671;DHT22;15077;49.704;9.908;2023-05-29T15:11:01;29.40;31.80
27671;DHT22;15077;49.704;9.908;2023-05-29T15:13:30;29.40;32.10
27671;DHT22;15077;49.704;9.908;2023-05-29T15:15:56;29.40;31.80
27671;DHT22;15077;49.704;9.908;2023-05-29T15:18:25;29.40;32.20
27671;DHT22;15077;49.704;9.908;2023-05-29T15:20:52;29.30;31.80
27671;DHT22;15077;49.704;9.908;2023-05-29T15:23:18;29.30;32.10
27671;DHT22;15077;49.704;9.908;2023-05-29T15:25:47;29.30;32.20
27671;DHT22;15077;49.704;9.908;2023-05-29T15:28:13;29.30;31.80
27671;DHT22;15077;49.704;9.908;2023-05-29T15:30:39;29.30;31.70
27671;DHT22;15077;49.704;9.908;2023-05-29T15:33:05;29.20;32.10
27671;DHT22;15077;49.704;9.908;2023-05-29T15:35:33;29.20;32.50
27671;DHT22;15077;49.704;9.908;2023-05-29T15:37:59;29.20;32.70
27671;DHT22;15077;49.704;9.908;2023-05-29T15:40:25;29.20;32.90
27671;DHT22;15077;49.704;9.908;2023-05-29T15:42:51;29.10;32.70
27671;DHT22;15077;49.704;9.908;2023-05-29T15:45:17;29.10;32.90
27671;DHT22;15077;49.704;9.908;2023-05-29T15:47:42;29.00;32.80
27671;DHT22;15077;49.704;9.908;2023-05-29T15:50:08;29.00;32.60
27671;DHT22;15077;49.704;9.908;2023-05-29T15:52:34;29.00;32.60
27671;DHT22;15077;49.704;9.908;2023-05-29T15:55:00;28.90;32.00
27671;DHT22;15077;49.704;9.908;2023-05-29T15:57:26;28.90;32.80